sensor_id;sensor_type;location;lat;lon;timestamp;temperature;humidity
22122;DHT22;11227;53.046;10.512;2022-08-19T00:01:27;20.40;72.90
22122;DHT22;11227;53.046;10.512;2022-08-19T00:05:31;20.40;72.90
22122;DHT22;11227;53.046;10.512;2022-08-19T00:09:32;20.40;73.10
22122;DHT22;11227;53.046;10.512;2022-08-19T00:13:34;20.40;73.00
22122;DHT22;11227;53.046;10.512;2022-08-19T00:17:36;20.40;73.10
22122;DHT22;11227;53.046;10.512;2022-08-19T00:21:42;20.40;73.10
22122;DHT22;11227;53.046;10.512;2022-08-19T00:25:44;20.40;75.80
22122;DHT22;11227;53.046;10.512;2022-08-19T00:29:49;20.40;73.10
22122;DHT22;11227;53.046;10.512;2022-08-19T00:33:53;20.40;73.20
22122;DHT22;11227;53.046;10.512;2022-08-19T00:37:55;20.50;73.20
22122;DHT22;11227;53.046;10.512;2022-08-19T00:41:56;20.40;72.90
22122;DHT22;11227;53.046;10.512;2022-08-19T00:45:58;20.40;72.20
22122;DHT22;11227;53.046;10.512;2022-08-19T00:50:00;20.40;72.20
22122;DHT22;11227;53.046;10.512;2022-08-19T00:54:02;20.40;71.80
22122;DHT22;11227;53.046;10.512;2022-08-19T00:58:06;20.50;71.60
22122;DHT22;11227;53.046;10.512;2022-08-19T01:02:09;20.40;71.10
22122;DHT22;11227;53.046;10.512;2022-08-19T01:06:10;20.40;71.00
22122;DHT22;11227;53.046;10.512;2022-08-19T01:10:14;20.40;70.70
22122;DHT22;11227;53.046;10.512;2022-08-19T01:14:17;20.40;70.70
22122;DHT22;11227;53.046;10.512;2022-08-19T01:18:19;20.40;70.40
22122;DHT22;11227;53.046;10.512;2022-08-19T01:26:30;20.40;70.80
22122;DHT22;11227;53.046;10.512;2022-08-19T01:30:33;20.40;70.60
22122;DHT22;11227;53.046;10.512;2022-08-19T01:34:37;20.40;70.80
22122;DHT22;11227;53.046;10.512;2022-08-19T01:38:41;20.40;70.60
22122;DHT22;11227;53.046;10.512;2022-08-19T01:42:44;20.40;70.80
22122;DHT22;11227;53.046;10.512;2022-08-19T01:46:47;20.40;70.80
22122;DHT22;11227;53.046;10.512;2022-08-19T01:50:49;20.40;71.00
22122;DHT22;11227;53.046;10.512;2022-08-19T01:54:51;20.40;71.10
22122;DHT22;11227;53.046;10.512;2022-08-19T01:58:53;20.40;71.10
22122;DHT22;11227;53.046;10.512;2022-08-19T02:02:56;20.40;70.90
22122;DHT22;11227;53.046;10.512;2022-08-19T02:06:58;20.40;71.20
22122;DHT22;11227;53.046;10.512;2022-08-19T02:10:59;20.40;71.50
22122;DHT22;11227;53.046;10.512;2022-08-19T02:15:02;20.40;72.10
22122;DHT22;11227;53.046;10.512;2022-08-19T02:19:04;20.40;75.00
22122;DHT22;11227;53.046;10.512;2022-08-19T02:23:06;20.40;73.00
22122;DHT22;11227;53.046;10.512;2022-08-19T02:27:14;20.40;73.80
22122;DHT22;11227;53.046;10.512;2022-08-19T02:31:17;20.40;74.70
22122;DHT22;11227;53.046;10.512;2022-08-19T02:35:19;20.40;74.70
22122;DHT22;11227;53.046;10.512;2022-08-19T02:39:21;20.40;75.20
22122;DHT22;11227;53.046;10.512;2022-08-19T02:43:23;20.40;75.50
22122;DHT22;11227;53.046;10.512;2022-08-19T02:47:25;20.40;75.70
22122;DHT22;11227;53.046;10.512;2022-08-19T02:51:28;20.40;75.90
22122;DHT22;11227;53.046;10.512;2022-08-19T02:55:30;20.40;75.50
22122;DHT22;11227;53.046;10.512;2022-08-19T02:59:46;20.40;75.00
22122;DHT22;11227;53.046;10.512;2022-08-19T03:03:48;20.40;75.00
22122;DHT22;11227;53.046;10.512;2022-08-19T03:07:49;20.40;74.90
22122;DHT22;11227;53.046;10.512;2022-08-19T03:11:51;20.40;75.50
22122;DHT22;11227;53.046;10.512;2022-08-19T03:15:53;20.40;75.80
22122;DHT22;11227;53.046;10.512;2022-08-19T03:19:54;20.40;76.10
22122;DHT22;11227;53.046;10.512;2022-08-19T03:23:57;20.40;76.30
22122;DHT22;11227;53.046;10.512;2022-08-19T03:27:59;20.40;76.30
22122;DHT22;11227;53.046;10.512;2022-08-19T03:32:02;20.40;76.50
22122;DHT22;11227;53.046;10.512;2022-08-19T03:36:07;20.40;76.50
22122;DHT22;11227;53.046;10.512;2022-08-19T03:40:12;20.40;76.50
22122;DHT22;11227;53.046;10.512;2022-08-19T03:44:18;20.40;76.10
22122;DHT22;11227;53.046;10.512;2022-08-19T03:48:20;20.40;76.40
22122;DHT22;11227;53.046;10.512;2022-08-19T03:52:22;20.40;76.30
22122;DHT22;11227;53.046;10.512;2022-08-19T03:56:24;20.40;76.20
22122;DHT22;11227;53.046;10.512;2022-08-19T04:00:29;20.40;76.30
22122;DHT22;11227;53.046;10.512;2022-08-19T04:04:30;20.40;76.60
22122;DHT22;11227;53.046;10.512;2022-08-19T04:08:32;20.40;76.50
22122;DHT22;11227;53.046;10.512;2022-08-19T04:12:34;20.40;76.50
22122;DHT22;11227;53.046;10.512;2022-08-19T04:16:35;20.40;76.80
22122;DHT22;11227;53.046;10.512;2022-08-19T04:20:41;20.40;76.90
22122;DHT22;11227;53.046;10.512;2022-08-19T04:24:43;20.40;77.30
22122;DHT22;11227;53.046;10.512;2022-08-19T04:28:44;20.40;77.20
22122;DHT22;11227;53.046;10.512;2022-08-19T04:32:46;20.40;77.20
22122;DHT22;11227;53.046;10.512;2022-08-19T04:36:48;20.40;77.20
22122;DHT22;11227;53.046;10.512;2022-08-19T04:40:52;20.40;76.80
22122;DHT22;11227;53.046;10.512;2022-08-19T04:45:13;20.40;76.80
22122;DHT22;11227;53.046;10.512;2022-08-19T04:49:15;20.40;76.80
22122;DHT22;11227;53.046;10.512;2022-08-19T04:53:19;20.40;76.90
22122;DHT22;11227;53.046;10.512;2022-08-19T04:57:20;20.40;77.20
22122;DHT22;11227;53.046;10.512;2022-08-19T05:01:26;20.40;76.90
22122;DHT22;11227;53.046;10.512;2022-08-19T05:05:29;20.40;76.50
22122;DHT22;11227;53.046;10.512;2022-08-19T05:09:45;20.40;76.60
22122;DHT22;11227;53.046;10.512;2022-08-19T05:13:59;20.40;76.80
22122;DHT22;11227;53.046;10.512;2022-08-19T05:18:01;20.40;76.90
22122;DHT22;11227;53.046;10.512;2022-08-19T05:22:21;20.40;77.40
22122;DHT22;11227;53.046;10.512;2022-08-19T05:26:39;20.40;77.60
22122;DHT22;11227;53.046;10.512;2022-08-19T05:30:41;20.40;77.60
22122;DHT22;11227;53.046;10.512;2022-08-19T05:34:48;20.40;77.90
22122;DHT22;11227;53.046;10.512;2022-08-19T05:38:49;20.40;77.70
22122;DHT22;11227;53.046;10.512;2022-08-19T05:42:51;20.40;78.00
22122;DHT22;11227;53.046;10.512;2022-08-19T05:46:55;20.40;78.30
22122;DHT22;11227;53.046;10.512;2022-08-19T05:50:57;20.40;78.30
22122;DHT22;11227;53.046;10.512;2022-08-19T05:55:00;20.40;78.30
22122;DHT22;11227;53.046;10.512;2022-08-19T05:59:02;20.40;78.70
22122;DHT22;11227;53.046;10.512;2022-08-19T06:03:04;20.40;79.00
22122;DHT22;11227;53.046;10.512;2022-08-19T06:07:13;20.40;79.50
22122;DHT22;11227;53.046;10.512;2022-08-19T06:11:18;20.40;79.70
22122;DHT22;11227;53.046;10.512;2022-08-19T06:15:20;20.40;80.60
22122;DHT22;11227;53.046;10.512;2022-08-19T06:19:23;20.40;81.60
22122;DHT22;11227;53.046;10.512;2022-08-19T06:23:30;20.40;82.40
22122;DHT22;11227;53.046;10.512;2022-08-19T06:27:32;20.40;83.40
22122;DHT22;11227;53.046;10.512;2022-08-19T06:31:35;20.40;84.00
22122;DHT22;11227;53.046;10.512;2022-08-19T06:35:38;20.40;84.60
22122;DHT22;11227;53.046;10.512;2022-08-19T06:39:42;20.40;85.20
22122;DHT22;11227;53.046;10.512;2022-08-19T06:43:44;20.40;85.80
22122;DHT22;11227;53.046;10.512;2022-08-19T06:47:46;20.40;86.30
22122;DHT22;11227;53.046;10.512;2022-08-19T06:51:50;20.40;87.10
22122;DHT22;11227;53.046;10.512;2022-08-19T06:55:52;20.40;87.50
22122;DHT22;11227;53.046;10.512;2022-08-19T07:00:04;20.40;88.10
22122;DHT22;11227;53.046;10.512;2022-08-19T07:04:09;20.40;89.00
22122;DHT22;11227;53.046;10.512;2022-08-19T07:08:12;20.40;89.80
22122;DHT22;11227;53.046;10.512;2022-08-19T07:12:14;20.40;90.20
22122;DHT22;11227;53.046;10.512;2022-08-19T07:16:17;20.40;90.50
22122;DHT22;11227;53.046;10.512;2022-08-19T07:20:29;20.40;90.80
22122;DHT22;11227;53.046;10.512;2022-08-19T07:24:31;20.40;90.70
22122;DHT22;11227;53.046;10.512;2022-08-19T07:28:34;20.40;90.40
22122;DHT22;11227;53.046;10.512;2022-08-19T07:32:36;20.40;90.20
22122;DHT22;11227;53.046;10.512;2022-08-19T07:36:39;20.40;90.30
22122;DHT22;11227;53.046;10.512;2022-08-19T07:40:41;20.40;90.20
22122;DHT22;11227;53.046;10.512;2022-08-19T07:44:44;20.40;90.20
22122;DHT22;11227;53.046;10.512;2022-08-19T07:48:51;20.40;90.30
22122;DHT22;11227;53.046;10.512;2022-08-19T07:52:52;20.40;90.00
22122;DHT22;11227;53.046;10.512;2022-08-19T07:56:54;20.40;90.00
22122;DHT22;11227;53.046;10.512;2022-08-19T08:00:56;20.40;90.00
22122;DHT22;11227;53.046;10.512;2022-08-19T08:04:57;20.40;90.00
22122;DHT22;11227;53.046;10.512;2022-08-19T08:09:19;20.40;89.90
22122;DHT22;11227;53.046;10.512;2022-08-19T08:13:28;20.40;90.20
22122;DHT22;11227;53.046;10.512;2022-08-19T08:17:30;20.40;90.40
22122;DHT22;11227;53.046;10.512;2022-08-19T08:21:52;20.40;90.50
22122;DHT22;11227;53.046;10.512;2022-08-19T08:25:56;20.40;90.40
22122;DHT22;11227;53.046;10.512;2022-08-19T08:29:58;20.40;90.10
22122;DHT22;11227;53.046;10.512;2022-08-19T08:34:03;20.40;90.10
22122;DHT22;11227;53.046;10.512;2022-08-19T08:38:04;20.40;90.00
22122;DHT22;11227;53.046;10.512;2022-08-19T08:46:25;20.40;89.80
22122;DHT22;11227;53.046;10.512;2022-08-19T08:50:34;20.40;90.00
22122;DHT22;11227;53.046;10.512;2022-08-19T08:54:39;20.40;90.20
22122;DHT22;11227;53.046;10.512;2022-08-19T08:58:51;20.40;91.60
22122;DHT22;11227;53.046;10.512;2022-08-19T09:02:56;20.40;90.80
22122;DHT22;11227;53.046;10.512;2022-08-19T09:07:13;20.40;91.10
22122;DHT22;11227;53.046;10.512;2022-08-19T09:16:10;20.40;91.50
22122;DHT22;11227;53.046;10.512;2022-08-19T09:20:15;20.50;91.80
22122;DHT22;11227;53.046;10.512;2022-08-19T09:24:17;20.40;92.10
22122;DHT22;11227;53.046;10.512;2022-08-19T09:28:19;20.40;92.40
22122;DHT22;11227;53.046;10.512;2022-08-19T09:32:23;20.40;92.40
22122;DHT22;11227;53.046;10.512;2022-08-19T09:36:27;20.40;92.70
22122;DHT22;11227;53.046;10.512;2022-08-19T09:40:35;20.40;93.20
22122;DHT22;11227;53.046;10.512;2022-08-19T09:44:39;20.40;93.60
22122;DHT22;11227;53.046;10.512;2022-08-19T09:48:41;20.40;94.20
22122;DHT22;11227;53.046;10.512;2022-08-19T09:52:43;20.40;94.50
22122;DHT22;11227;53.046;10.512;2022-08-19T09:56:58;20.40;95.10
22122;DHT22;11227;53.046;10.512;2022-08-19T10:01:05;20.40;95.60
22122;DHT22;11227;53.046;10.512;2022-08-19T10:05:07;20.40;96.10
22122;DHT22;11227;53.046;10.512;2022-08-19T10:09:28;20.40;96.40
22122;DHT22;11227;53.046;10.512;2022-08-19T10:13:35;20.40;96.80
22122;DHT22;11227;53.046;10.512;2022-08-19T10:17:37;20.40;97.10
22122;DHT22;11227;53.046;10.512;2022-08-19T10:21:38;20.40;97.50
22122;DHT22;11227;53.046;10.512;2022-08-19T10:25:41;20.40;98.10
22122;DHT22;11227;53.046;10.512;2022-08-19T10:29:44;20.40;98.50
22122;DHT22;11227;53.046;10.512;2022-08-19T10:33:47;20.40;98.90
22122;DHT22;11227;53.046;10.512;2022-08-19T10:37:55;20.40;99.20
22122;DHT22;11227;53.046;10.512;2022-08-19T10:42:05;20.40;99.60
22122;DHT22;11227;53.046;10.512;2022-08-19T10:46:08;20.40;99.90
22122;DHT22;11227;53.046;10.512;2022-08-19T10:50:17;20.40;99.90
22122;DHT22;11227;53.046;10.512;2022-08-19T10:54:38;20.40;99.90
22122;DHT22;11227;53.046;10.512;2022-08-19T10:59:05;20.40;99.90
22122;DHT22;11227;53.046;10.512;2022-08-19T11:03:07;20.40;99.90
22122;DHT22;11227;53.046;10.512;2022-08-19T11:07:10;20.40;99.90
22122;DHT22;11227;53.046;10.512;2022-08-19T11:11:13;20.40;99.90
22122;DHT22;11227;53.046;10.512;2022-08-19T11:15:14;20.40;99.90
22122;DHT22;11227;53.046;10.512;2022-08-19T11:19:17;20.40;99.90
22122;DHT22;11227;53.046;10.512;2022-08-19T11:23:20;20.40;99.90
22122;DHT22;11227;53.046;10.512;2022-08-19T11:27:21;20.40;99.90
22122;DHT22;11227;53.046;10.512;2022-08-19T11:31:24;20.40;99.90
22122;DHT22;11227;53.046;10.512;2022-08-19T11:35:29;20.40;99.90
22122;DHT22;11227;53.046;10.512;2022-08-19T11:39:32;20.40;99.90
22122;DHT22;11227;53.046;10.512;2022-08-19T11:43:34;20.40;99.90
22122;DHT22;11227;53.046;10.512;2022-08-19T11:47:38;20.40;99.90
22122;DHT22;11227;53.046;10.512;2022-08-19T11:51:40;20.40;99.90
22122;DHT22;11227;53.046;10.512;2022-08-19T11:55:44;20.40;99.90
22122;DHT22;11227;53.046;10.512;2022-08-19T11:59:50;20.40;99.90
22122;DHT22;11227;53.046;10.512;2022-08-19T12:03:52;20.40;99.90
22122;DHT22;11227;53.046;10.512;2022-08-19T12:07:54;20.40;99.90
22122;DHT22;11227;53.046;10.512;2022-08-19T12:11:56;20.40;99.90
22122;DHT22;11227;53.046;10.512;2022-08-19T12:15:58;20.40;99.90
22122;DHT22;11227;53.046;10.512;2022-08-19T12:20:00;20.40;99.90
22122;DHT22;11227;53.046;10.512;2022-08-19T12:24:03;20.40;99.90
22122;DHT22;11227;53.046;10.512;2022-08-19T12:28:05;20.40;99.90
22122;DHT22;11227;53.046;10.512;2022-08-19T12:32:06;20.40;99.90
22122;DHT22;11227;53.046;10.512;2022-08-19T12:36:13;20.40;99.90
22122;DHT22;11227;53.046;10.512;2022-08-19T12:40:15;20.40;99.90
22122;DHT22;11227;53.046;10.512;2022-08-19T12:44:19;20.40;99.90
22122;DHT22;11227;53.046;10.512;2022-08-19T12:48:30;20.40;99.90
22122;DHT22;11227;53.046;10.512;2022-08-19T12:52:35;20.40;99.90
22122;DHT22;11227;53.046;10.512;2022-08-19T12:56:42;20.40;99.90
22122;DHT22;11227;53.046;10.512;2022-08-19T13:00:43;20.40;99.90
22122;DHT22;11227;53.046;10.512;2022-08-19T13:04:45;20.40;99.90
22122;DHT22;11227;53.046;10.512;2022-08-19T13:08:47;20.40;99.90
22122;DHT22;11227;53.046;10.512;2022-08-19T13:12:49;20.40;99.90
22122;DHT22;11227;53.046;10.512;2022-08-19T13:16:51;20.40;99.90
22122;DHT22;11227;53.046;10.512;2022-08-19T13:20:53;20.40;99.90
22122;DHT22;11227;53.046;10.512;2022-08-19T13:24:54;20.40;99.90
22122;DHT22;11227;53.046;10.512;2022-08-19T13:28:56;20.40;99.90
22122;DHT22;11227;53.046;10.512;2022-08-19T13:33:36;20.40;99.90
22122;DHT22;11227;53.046;10.512;2022-08-19T13:37:38;20.40;99.90
22122;DHT22;11227;53.046;10.512;2022-08-19T13:41:44;20.40;99.90
22122;DHT22;11227;53.046;10.512;2022-08-19T13:45:53;20.40;99.90
22122;DHT22;11227;53.046;10.512;2022-08-19T13:49:57;20.40;99.90
22122;DHT22;11227;53.046;10.512;2022-08-19T13:53:59;20.40;99.90
22122;DHT22;11227;53.046;10.512;2022-08-19T13:58:00;20.40;99.90
22122;DHT22;11227;53.046;10.512;2022-08-19T14:02:05;20.40;99.90
22122;DHT22;11227;53.046;10.512;2022-08-19T14:06:06;20.40;99.90
22122;DHT22;11227;53.046;10.512;2022-08-19T14:10:12;20.40;99.90
22122;DHT22;11227;53.046;10.512;2022-08-19T14:14:14;20.40;99.90
22122;DHT22;11227;53.046;10.512;2022-08-19T14:18:17;20.40;99.90
22122;DHT22;11227;53.046;10.512;2022-08-19T14:22:19;20.40;99.90
22122;DHT22;11227;53.046;10.512;2022-08-19T14:26:22;20.40;99.90
22122;DHT22;11227;53.046;10.512;2022-08-19T14:30:26;20.40;99.90
22122;DHT22;11227;53.046;10.512;2022-08-19T14:34:29;20.40;99.90
22122;DHT22;11227;53.046;10.512;2022-08-19T14:38:32;20.40;99.90
22122;DHT22;11227;53.046;10.512;2022-08-19T14:42:34;20.40;99.90
22122;DHT22;11227;53.046;10.512;2022-08-19T14:46:36;20.40;99.90
22122;DHT22;11227;53.046;10.512;2022-08-19T14:50:37;20.40;99.90
22122;DHT22;11227;53.046;10.512;2022-08-19T14:54:39;20.40;99.90
22122;DHT22;11227;53.046;10.512;2022-08-19T14:58:41;20.40;99.90
22122;DHT22;11227;53.046;10.512;2022-08-19T15:02:43;20.40;99.90
22122;DHT22;11227;53.046;10.512;2022-08-19T15:06:47;20.40;99.90
22122;DHT22;11227;53.046;10.512;2022-08-19T15:10:49;20.40;99.90
22122;DHT22;11227;53.046;10.512;2022-08-19T15:14:51;20.40;99.90
22122;DHT22;11227;53.046;10.512;2022-08-19T15:18:57;20.40;99.90
22122;DHT22;11227;53.046;10.512;2022-08-19T15:23:00;20.40;99.90
22122;DHT22;11227;53.046;10.512;2022-08-19T15:27:02;20.40;99.90
22122;DHT22;11227;53.046;10.512;2022-08-19T15:31:04;20.40;99.90
22122;DHT22;11227;53.046;10.512;2022-08-19T15:35:06;20.40;99.90
22122;DHT22;11227;53.046;10.512;2022-08-19T15:39:08;20.40;99.90
22122;DHT22;11227;53.046;10.512;2022-08-19T15:43:10;20.40;99.90
22122;DHT22;11227;53.046;10.512;2022-08-19T15:47:12;20.40;99.90
22122;DHT22;11227;53.046;10.512;2022-08-19T15:51:14;20.40;99.90
22122;DHT22;11227;53.046;10.512;2022-08-19T15:55:18;20.40;99.90
22122;DHT22;11227;53.046;10.512;2022-08-19T15:59:34;20.40;99.90
22122;DHT22;11227;53.046;10.512;2022-08-19T16:04:03;20.40;99.90
22122;DHT22;11227;53.046;10.512;2022-08-19T16:08:24;20.40;99.90
22122;DHT22;11227;53.046;10.512;2022-08-19T16:12:26;20.40;99.90
22122;DHT22;11227;53.046;10.512;2022-08-19T16:16:31;20.40;99.90
22122;DHT22;11227;53.046;10.512;2022-08-19T16:20:34;20.40;99.90
22122;DHT22;11227;53.046;10.512;2022-08-19T16:24:36;20.40;99.90
22122;DHT22;11227;53.046;10.512;2022-08-19T16:28:39;20.40;99.90
22122;DHT22;11227;53.046;10.512;2022-08-19T16:32:42;20.40;99.90
22122;DHT22;11227;53.046;10.512;2022-08-19T16:36:43;20.40;99.90
22122;DHT22;11227;53.046;10.512;2022-08-19T16:40:45;20.40;99.90
22122;DHT22;11227;53.046;10.512;2022-08-19T16:44:49;20.40;99.90
22122;DHT22;11227;53.046;10.512;2022-08-19T16:48:50;20.40;99.90
22122;DHT22;11227;53.046;10.512;2022-08-19T16:52:52;20.40;99.90
22122;DHT22;11227;53.046;10.512;2022-08-19T16:56:54;20.40;99.90
22122;DHT22;11227;53.046;10.512;2022-08-19T17:00:56;20.40;99.90
22122;DHT22;11227;53.046;10.512;2022-08-19T17:05:05;20.40;99.90
22122;DHT22;11227;53.046;10.512;2022-08-19T17:09:07;20.40;99.90
22122;DHT22;11227;53.046;10.512;2022-08-19T17:13:09;20.40;99.90
22122;DHT22;11227;53.046;10.512;2022-08-19T17:17:10;20.40;99.90
22122;DHT22;11227;53.046;10.512;2022-08-19T17:21:13;20.40;99.90
22122;DHT22;11227;53.046;10.512;2022-08-19T17:25:14;20.50;99.90
22122;DHT22;11227;53.046;10.512;2022-08-19T17:29:16;20.40;99.90
22122;DHT22;11227;53.046;10.512;2022-08-19T17:33:17;20.40;99.90
22122;DHT22;11227;53.046;10.512;2022-08-19T17:37:19;20.40;99.90
22122;DHT22;11227;53.046;10.512;2022-08-19T17:41:22;20.40;99.90
22122;DHT22;11227;53.046;10.512;2022-08-19T17:45:24;20.40;99.90
22122;DHT22;11227;53.046;10.512;2022-08-19T17:49:26;20.40;99.90
22122;DHT22;11227;53.046;10.512;2022-08-19T17:53:27;20.40;99.90
22122;DHT22;11227;53.046;10.512;2022-08-19T17:57:29;20.40;99.90
22122;DHT22;11227;53.046;10.512;2022-08-19T18:01:30;20.40;99.90
22122;DHT22;11227;53.046;10.512;2022-08-19T18:05:52;20.40;99.90
22122;DHT22;11227;53.046;10.512;2022-08-19T18:09:54;20.40;99.90
22122;DHT22;11227;53.046;10.512;2022-08-19T18:13:56;20.40;99.90
22122;DHT22;11227;53.046;10.512;2022-08-19T18:17:57;20.40;99.90
22122;DHT22;11227;53.046;10.512;2022-08-19T18:21:59;20.40;99.90
22122;DHT22;11227;53.046;10.512;2022-08-19T18:26:01;20.40;99.90
22122;DHT22;11227;53.046;10.512;2022-08-19T18:30:04;20.40;99.90
22122;DHT22;11227;53.046;10.512;2022-08-19T18:34:06;20.40;99.90
22122;DHT22;11227;53.046;10.512;2022-08-19T18:38:11;20.40;99.90
22122;DHT22;11227;53.046;10.512;2022-08-19T18:42:31;20.40;99.90
22122;DHT22;11227;53.046;10.512;2022-08-19T18:46:51;20.40;99.90
22122;DHT22;11227;53.046;10.512;2022-08-19T18:51:11;20.40;99.90
22122;DHT22;11227;53.046;10.512;2022-08-19T18:55:14;20.40;99.90
22122;DHT22;11227;53.046;10.512;2022-08-19T18:59:17;20.40;99.90
22122;DHT22;11227;53.046;10.512;2022-08-19T19:03:21;20.40;99.90
22122;DHT22;11227;53.046;10.512;2022-08-19T19:07:24;20.40;99.90
22122;DHT22;11227;53.046;10.512;2022-08-19T19:11:29;20.40;99.90
22122;DHT22;11227;53.046;10.512;2022-08-19T19:15:30;20.40;99.90
22122;DHT22;11227;53.046;10.512;2022-08-19T19:19:33;20.40;99.90
22122;DHT22;11227;53.046;10.512;2022-08-19T19:23:35;20.40;99.90
22122;DHT22;11227;53.046;10.512;2022-08-19T19:27:40;20.40;99.90
22122;DHT22;11227;53.046;10.512;2022-08-19T19:31:42;20.40;99.90
22122;DHT22;11227;53.046;10.512;2022-08-19T19:35:44;20.40;99.90
22122;DHT22;11227;53.046;10.512;2022-08-19T19:39:47;20.40;99.90
22122;DHT22;11227;53.046;10.512;2022-08-19T19:43:52;20.30;99.90
22122;DHT22;11227;53.046;10.512;2022-08-19T19:48:14;20.40;99.90
22122;DHT22;11227;53.046;10.512;2022-08-19T19:52:16;20.40;99.90
22122;DHT22;11227;53.046;10.512;2022-08-19T19:56:19;20.40;99.90
22122;DHT22;11227;53.046;10.512;2022-08-19T20:00:22;20.40;99.90
22122;DHT22;11227;53.046;10.512;2022-08-19T20:04:25;20.40;99.90
22122;DHT22;11227;53.046;10.512;2022-08-19T20:08:27;20.40;99.90
22122;DHT22;11227;53.046;10.512;2022-08-19T20:12:47;20.40;99.90
22122;DHT22;11227;53.046;10.512;2022-08-19T20:16:49;20.40;99.90
22122;DHT22;11227;53.046;10.512;2022-08-19T20:20:51;20.40;99.90
22122;DHT22;11227;53.046;10.512;2022-08-19T20:24:53;20.40;99.90
22122;DHT22;11227;53.046;10.512;2022-08-19T20:28:55;20.40;99.90
22122;DHT22;11227;53.046;10.512;2022-08-19T20:33:14;20.40;99.90
22122;DHT22;11227;53.046;10.512;2022-08-19T20:37:16;20.40;99.90
22122;DHT22;11227;53.046;10.512;2022-08-19T20:41:17;20.40;99.90
22122;DHT22;11227;53.046;10.512;2022-08-19T20:45:21;20.40;99.90
22122;DHT22;11227;53.046;10.512;2022-08-19T20:49:33;20.40;99.90
22122;DHT22;11227;53.046;10.512;2022-08-19T20:53:36;20.40;99.90
22122;DHT22;11227;53.046;10.512;2022-08-19T20:57:37;20.40;99.90
22122;DHT22;11227;53.046;10.512;2022-08-19T21:01:39;20.40;99.90
22122;DHT22;11227;53.046;10.512;2022-08-19T21:05:41;20.40;99.90
22122;DHT22;11227;53.046;10.512;2022-08-19T21:09:42;20.40;99.90
22122;DHT22;11227;53.046;10.512;2022-08-19T21:13:44;20.40;99.90
22122;DHT22;11227;53.046;10.512;2022-08-19T21:17:46;20.40;99.90
22122;DHT22;11227;53.046;10.512;2022-08-19T21:21:49;20.40;99.90
22122;DHT22;11227;53.046;10.512;2022-08-19T21:25:51;20.40;99.90
22122;DHT22;11227;53.046;10.512;2022-08-19T21:29:55;20.40;99.90
22122;DHT22;11227;53.046;10.512;2022-08-19T21:33:56;20.40;99.90
22122;DHT22;11227;53.046;10.512;2022-08-19T21:37:58;20.40;99.90
22122;DHT22;11227;53.046;10.512;2022-08-19T21:42:00;20.40;99.90
22122;DHT22;11227;53.046;10.512;2022-08-19T21:46:01;20.40;99.90
22122;DHT22;11227;53.046;10.512;2022-08-19T21:50:03;20.40;99.90
22122;DHT22;11227;53.046;10.512;2022-08-19T21:54:05;20.40;99.90
22122;DHT22;11227;53.046;10.512;2022-08-19T21:58:14;20.40;99.90
22122;DHT22;11227;53.046;10.512;2022-08-19T22:02:16;20.40;99.90
22122;DHT22;11227;53.046;10.512;2022-08-19T22:06:22;20.30;99.90
22122;DHT22;11227;53.046;10.512;2022-08-19T22:10:26;20.40;99.90
22122;DHT22;11227;53.046;10.512;2022-08-19T22:14:28;20.40;99.90
22122;DHT22;11227;53.046;10.512;2022-08-19T22:18:30;20.40;99.90
22122;DHT22;11227;53.046;10.512;2022-08-19T22:22:32;20.40;99.90
22122;DHT22;11227;53.046;10.512;2022-08-19T22:26:33;20.40;99.90
22122;DHT22;11227;53.046;10.512;2022-08-19T22:30:36;20.40;99.90
22122;DHT22;11227;53.046;10.512;2022-08-19T22:34:39;20.40;99.90
22122;DHT22;11227;53.046;10.512;2022-08-19T22:38:40;20.40;99.90
22122;DHT22;11227;53.046;10.512;2022-08-19T22:42:42;20.40;99.90
22122;DHT22;11227;53.046;10.512;2022-08-19T22:46:44;20.40;99.90
22122;DHT22;11227;53.046;10.512;2022-08-19T22:50:46;20.40;99.90
22122;DHT22;11227;53.046;10.512;2022-08-19T22:55:09;20.40;99.90
22122;DHT22;11227;53.046;10.512;2022-08-19T22:59:10;20.40;99.90
22122;DHT22;11227;53.046;10.512;2022-08-19T23:03:12;20.40;99.90
22122;DHT22;11227;53.046;10.512;2022-08-19T23:07:14;20.40;99.90
22122;DHT22;11227;53.046;10.512;2022-08-19T23:11:16;20.40;99.90
22122;DHT22;11227;53.046;10.512;2022-08-19T23:15:19;20.40;99.90
22122;DHT22;11227;53.046;10.512;2022-08-19T23:19:24;20.40;99.40
22122;DHT22;11227;53.046;10.512;2022-08-19T23:23:25;20.40;99.00
22122;DHT22;11227;53.046;10.512;2022-08-19T23:27:27;20.40;98.60
22122;DHT22;11227;53.046;10.512;2022-08-19T23:31:47;20.30;98.50
22122;DHT22;11227;53.046;10.512;2022-08-19T23:35:51;20.40;98.20
22122;DHT22;11227;53.046;10.512;2022-08-19T23:39:53;20.40;97.70
22122;DHT22;11227;53.046;10.512;2022-08-19T23:43:54;20.40;97.40
22122;DHT22;11227;53.046;10.512;2022-08-19T23:47:56;20.40;96.80
22122;DHT22;11227;53.046;10.512;2022-08-19T23:51:58;20.40;96.20
22122;DHT22;11227;53.046;10.512;2022-08-19T23:56:00;20.40;95.80
